createdAt,value
2023-01-25T00:03:26.742Z,20.70
2023-01-25T00:07:28.005Z,20.88
2023-01-25T00:12:14.074Z,20.98
2023-01-25T00:20:28.867Z,19.07
2023-01-25T00:25:10.850Z,19.83
2023-01-25T01:56:27.208Z,19.45
2023-01-25T02:01:15.284Z,21.23
2023-01-25T02:18:27.446Z,19.67
2023-01-25T02:36:11.335Z,20.27
2023-01-25T02:40:23.714Z,19.33
2023-01-25T02:49:10.099Z,18.80
2023-01-25T03:02:20.295Z,21.65
2023-01-25T03:06:22.105Z,20.97
2023-01-25T03:18:44.159Z,20.75
2023-01-25T03:41:23.577Z,18.88
2023-01-25T03:49:49.682Z,22.73
2023-01-25T03:54:07.803Z,19.03
2023-01-25T04:10:39.217Z,21.37
2023-01-25T04:15:05.650Z,21.37
2023-01-25T04:31:21.533Z,23.50
2023-01-25T04:52:27.050Z,21.53
2023-01-25T05:01:11.072Z,23.38
2023-01-25T05:18:10.899Z,25.83
2023-01-25T05:31:23.654Z,20.95
2023-01-25T05:35:11.665Z,20.10
2023-01-25T05:38:18.909Z,21.70
2023-01-25T05:41:26.331Z,21.63
2023-01-25T05:44:30.284Z,25.40
2023-01-25T05:47:34.915Z,26.58
2023-01-25T05:50:39.684Z,30.30
2023-01-25T05:53:48.826Z,41.33
2023-01-25T05:56:53.293Z,33.25
2023-01-25T05:59:59.397Z,36.05
2023-01-25T06:03:04.563Z,29.60
2023-01-25T06:06:14.800Z,27.93
2023-01-25T06:09:19.687Z,26.20
2023-01-25T06:12:28.767Z,30.48
2023-01-25T06:15:37.862Z,45.83
2023-01-25T06:19:02.027Z,45.53
2023-01-25T06:22:19.303Z,36.00
2023-01-25T06:25:23.546Z,23.97
2023-01-25T06:28:27.114Z,23.17
2023-01-25T06:31:30.454Z,22.35
2023-01-25T06:34:33.928Z,24.05
2023-01-25T06:37:37.297Z,23.63
2023-01-25T06:40:41.809Z,22.60
2023-01-25T06:43:45.985Z,21.92
2023-01-25T06:46:49.287Z,21.83
2023-01-25T06:49:53.108Z,21.52
2023-01-25T06:52:57.735Z,25.07
2023-01-25T06:56:06.045Z,23.00
2023-01-25T06:59:13.454Z,21.42
2023-01-25T07:02:18.486Z,22.40
2023-01-25T07:05:23.062Z,22.40
2023-01-25T07:08:27.203Z,23.90
2023-01-25T07:11:35.248Z,24.33
2023-01-25T07:14:43.880Z,22.27
2023-01-25T07:17:50.217Z,21.15
2023-01-25T07:21:04.742Z,22.13
2023-01-25T07:24:14.988Z,20.90
2023-01-25T07:27:19.721Z,20.80
2023-01-25T07:30:24.859Z,21.52
2023-01-25T07:33:32.587Z,22.38
2023-01-25T07:36:42.596Z,22.38
2023-01-25T07:39:52.605Z,24.53
2023-01-25T07:42:58.971Z,23.87
2023-01-25T07:46:08.492Z,20.65
2023-01-25T07:49:12.584Z,21.63
2023-01-25T07:52:16.283Z,21.33
2023-01-25T07:55:21.156Z,20.17
2023-01-25T07:58:26.536Z,19.50
2023-01-25T08:01:36.912Z,20.73
2023-01-25T08:04:43.970Z,18.88
2023-01-25T08:07:50.009Z,22.60
2023-01-25T08:10:55.571Z,22.93
2023-01-25T08:14:02.857Z,22.10
2023-01-25T08:17:08.253Z,19.90
2023-01-25T08:20:15.099Z,19.70
2023-01-25T08:23:23.032Z,21.85
2023-01-25T08:26:27.325Z,20.23
2023-01-25T08:29:32.089Z,19.30
2023-01-25T08:32:38.273Z,23.17
2023-01-25T08:35:44.084Z,22.77
2023-01-25T08:38:48.933Z,20.27
2023-01-25T08:41:52.533Z,20.60
2023-01-25T08:44:58.147Z,18.93
2023-01-25T08:48:02.463Z,18.70
2023-01-25T08:51:09.086Z,19.25
2023-01-25T08:54:14.546Z,20.42
2023-01-25T08:57:22.125Z,20.17
2023-01-25T09:00:27.492Z,18.47
2023-01-25T09:03:32.740Z,19.13
2023-01-25T09:06:37.151Z,19.10
2023-01-25T09:09:41.212Z,18.20
2023-01-25T09:12:46.679Z,17.20
2023-01-25T09:15:54.005Z,20.10
2023-01-25T09:19:00.220Z,18.92
2023-01-25T09:22:04.744Z,18.92
2023-01-25T09:25:09.511Z,17.17
2023-01-25T09:28:12.843Z,17.53
2023-01-25T09:31:22.127Z,16.83
2023-01-25T09:34:54.638Z,16.20
2023-01-25T09:38:02.369Z,17.55
2023-01-25T09:41:27.550Z,17.50
2023-01-25T09:44:53.336Z,18.40
2023-01-25T09:48:06.886Z,17.50
2023-01-25T09:51:26.785Z,18.83
2023-01-25T09:54:42.261Z,18.17
2023-01-25T09:57:55.340Z,17.83
2023-01-25T10:01:39.045Z,16.80
2023-01-25T10:04:44.894Z,17.63
2023-01-25T10:08:05.526Z,19.15
2023-01-25T10:11:31.208Z,18.80
2023-01-25T10:14:36.094Z,17.85
2023-01-25T10:17:42.331Z,18.70
2023-01-25T10:21:20.033Z,18.20
2023-01-25T10:24:41.017Z,16.88
2023-01-25T10:27:48.802Z,17.20
2023-01-25T10:31:08.398Z,15.93
2023-01-25T10:34:55.863Z,18.43
2023-01-25T10:38:11.153Z,17.77
2023-01-25T10:41:27.340Z,16.98
2023-01-25T10:44:31.573Z,16.02
2023-01-25T10:47:37.757Z,15.13
2023-01-25T10:50:43.916Z,15.60
2023-01-25T10:53:58.891Z,15.17
2023-01-25T10:57:02.467Z,14.75
2023-01-25T11:00:11.429Z,12.90
2023-01-25T11:03:22.942Z,13.70
2023-01-25T11:06:47.182Z,13.83
2023-01-25T11:09:50.101Z,13.43
2023-01-25T11:13:12.602Z,14.32
2023-01-25T11:16:40.411Z,15.32
2023-01-25T11:19:44.252Z,13.82
2023-01-25T11:22:57.830Z,14.13
2023-01-25T11:26:27.787Z,16.93
2023-01-25T11:29:32.435Z,17.90
2023-01-25T11:32:39.093Z,17.35
2023-01-25T11:35:59.408Z,16.33
2023-01-25T11:39:31.287Z,16.13
2023-01-25T11:42:47.046Z,14.93
2023-01-25T11:46:14.585Z,15.13
2023-01-25T11:49:27.968Z,15.48
2023-01-25T11:53:02.327Z,15.57
2023-01-25T11:56:31.631Z,15.53
2023-01-25T12:00:00.631Z,16.83
2023-01-25T12:03:16.951Z,14.52
2023-01-25T12:06:43.546Z,57.53
2023-01-25T12:09:54.230Z,36.70
2023-01-25T12:13:22.164Z,21.53
2023-01-25T12:16:51.509Z,19.17
2023-01-25T12:20:10.623Z,16.05
2023-01-25T12:23:46.559Z,16.33
2023-01-25T12:27:27.480Z,15.98
2023-01-25T12:31:01.661Z,17.67
2023-01-25T12:34:15.465Z,16.97
2023-01-25T12:37:23.627Z,18.45
2023-01-25T12:40:48.012Z,17.42
2023-01-25T12:43:59.729Z,17.83
2023-01-25T12:47:22.377Z,17.43
2023-01-25T12:50:51.960Z,18.07
2023-01-25T12:53:59.545Z,17.55
2023-01-25T12:57:28.199Z,21.20
2023-01-25T13:00:45.891Z,19.33
2023-01-25T13:04:21.310Z,17.93
2023-01-25T13:07:35.577Z,19.10
2023-01-25T13:10:51.072Z,17.52
2023-01-25T13:14:15.469Z,21.48
2023-01-25T13:17:27.156Z,27.13
2023-01-25T13:20:41.049Z,23.23
2023-01-25T13:23:48.075Z,20.53
2023-01-25T13:26:58.351Z,19.00
2023-01-25T13:30:21.036Z,17.20
2023-01-25T13:33:43.674Z,17.05
2023-01-25T13:37:02.084Z,18.30
2023-01-25T13:40:08.295Z,19.07
2023-01-25T13:43:12.775Z,18.42
2023-01-25T13:46:20.836Z,19.13
2023-01-25T13:49:48.496Z,18.88
2023-01-25T13:53:19.521Z,17.90
2023-01-25T13:56:31.455Z,18.07
2023-01-25T13:59:35.378Z,16.58
2023-01-25T14:02:41.007Z,18.35
2023-01-25T14:05:57.329Z,19.38
2023-01-25T14:09:09.941Z,16.43
2023-01-25T14:12:41.392Z,17.30
2023-01-25T14:16:21.304Z,17.75
2023-01-25T14:19:31.316Z,17.35
2023-01-25T14:22:38.501Z,17.33
2023-01-25T14:25:43.204Z,17.17
2023-01-25T14:28:59.329Z,19.40
2023-01-25T14:32:05.816Z,21.23
2023-01-25T14:35:43.141Z,20.02
2023-01-25T14:38:53.139Z,18.85
2023-01-25T14:42:01.817Z,18.67
2023-01-25T14:45:14.668Z,22.00
2023-01-25T14:48:42.499Z,20.92
2023-01-25T14:52:20.273Z,19.85
2023-01-25T14:55:32.304Z,18.98
2023-01-25T14:58:59.482Z,19.63
2023-01-25T15:02:49.348Z,20.70
2023-01-25T15:06:13.445Z,17.95
2023-01-25T15:09:55.203Z,18.83
2023-01-25T15:13:34.769Z,20.50
2023-01-25T15:17:01.995Z,19.27
2023-01-25T15:20:43.870Z,19.80
2023-01-25T15:24:13.178Z,20.23
2023-01-25T15:27:35.601Z,19.98
2023-01-25T15:30:43.825Z,19.13
2023-01-25T15:33:59.008Z,22.40
2023-01-25T15:37:11.733Z,22.10
2023-01-25T15:40:27.417Z,21.15
2023-01-25T15:43:50.918Z,20.80
2023-01-25T15:47:08.287Z,19.10
2023-01-25T15:50:31.622Z,20.30
2023-01-25T15:54:09.031Z,20.10
2023-01-25T15:57:44.286Z,20.83
2023-01-25T16:01:15.827Z,19.13
2023-01-25T16:04:44.525Z,24.17
2023-01-25T16:07:56.030Z,20.10
2023-01-25T16:11:17.947Z,24.70
2023-01-25T16:14:59.281Z,21.00
2023-01-25T16:18:19.539Z,18.30
2023-01-25T16:21:46.292Z,20.50
2023-01-25T16:25:26.516Z,21.47
2023-01-25T16:29:15.955Z,24.00
2023-01-25T16:32:54.342Z,20.73
2023-01-25T16:36:40.043Z,22.02
2023-01-25T16:39:59.750Z,23.58
2023-01-25T16:43:18.026Z,36.37
2023-01-25T16:46:42.953Z,30.40
2023-01-25T16:50:28.789Z,33.15
2023-01-25T16:54:16.484Z,22.85
2023-01-25T16:57:53.832Z,22.10
2023-01-25T17:01:14.669Z,24.03
2023-01-25T17:04:36.150Z,26.70
2023-01-25T17:07:53.781Z,26.63
2023-01-25T17:11:11.081Z,24.60
2023-01-25T17:14:26.499Z,23.58
2023-01-25T17:17:57.134Z,22.70
2023-01-25T17:21:11.774Z,23.67
2023-01-25T17:24:24.649Z,25.92
2023-01-25T17:27:54.309Z,28.95
2023-01-25T17:31:26.290Z,31.13
2023-01-25T17:34:47.520Z,29.13
2023-01-25T17:38:00.654Z,28.00
2023-01-25T17:41:21.213Z,27.60
2023-01-25T17:44:38.302Z,22.73
2023-01-25T17:47:53.610Z,21.92
2023-01-25T17:51:27.295Z,19.70
2023-01-25T17:55:05.605Z,19.57
2023-01-25T17:59:04.162Z,25.30
2023-01-25T18:03:09.776Z,29.02
2023-01-25T18:06:51.957Z,25.00
2023-01-25T18:10:08.612Z,25.53
2023-01-25T18:17:11.138Z,23.65
2023-01-25T18:20:33.740Z,21.77
2023-01-25T18:24:17.949Z,21.77
2023-01-25T18:28:05.292Z,24.13
2023-01-25T18:35:29.528Z,22.27
2023-01-25T18:39:19.769Z,22.92
2023-01-25T18:42:58.745Z,23.40
2023-01-25T18:46:33.567Z,27.63
2023-01-25T18:50:20.650Z,25.60
2023-01-25T18:54:08.861Z,28.27
2023-01-25T18:57:50.777Z,29.85
2023-01-25T19:01:34.816Z,26.35
2023-01-25T19:04:54.214Z,25.93
2023-01-25T19:08:05.675Z,23.53
2023-01-25T19:15:18.870Z,21.13
2023-01-25T19:18:42.824Z,28.58
2023-01-25T19:26:07.627Z,42.07
2023-01-25T19:30:04.067Z,41.90
2023-01-25T19:37:16.848Z,33.90
2023-01-25T19:40:32.929Z,31.73
2023-01-25T19:43:50.851Z,30.47
2023-01-25T19:47:11.483Z,29.27
2023-01-25T19:51:07.111Z,25.67
2023-01-25T19:54:44.808Z,21.08
2023-01-25T19:58:18.562Z,20.77
2023-01-25T20:02:04.676Z,23.60
2023-01-25T20:06:00.050Z,20.25
2023-01-25T20:17:27.522Z,23.40
2023-01-25T20:21:07.905Z,22.10
2023-01-25T20:24:49.504Z,22.85
2023-01-25T20:28:25.442Z,22.92
2023-01-25T20:32:35.352Z,24.52
2023-01-25T20:36:21.803Z,25.30
2023-01-25T20:40:12.390Z,23.13
2023-01-25T20:44:29.942Z,24.20
2023-01-25T20:48:16.842Z,24.45
2023-01-25T20:52:07.970Z,26.15
2023-01-25T20:56:02.554Z,26.67
2023-01-25T20:59:30.850Z,25.93
2023-01-25T21:03:25.592Z,25.50
2023-01-25T21:07:28.955Z,25.10
2023-01-25T21:11:04.594Z,27.02
2023-01-25T21:14:37.053Z,26.13
2023-01-25T21:18:40.001Z,26.90
2023-01-25T21:22:15.929Z,27.65
2023-01-25T21:25:58.967Z,28.17
2023-01-25T21:29:35.359Z,29.00
2023-01-25T21:33:05.168Z,28.97
2023-01-25T21:36:22.428Z,27.83
2023-01-25T21:40:05.278Z,28.20
2023-01-25T21:43:41.877Z,29.60
2023-01-25T21:47:29.955Z,30.60
2023-01-25T21:51:23.503Z,28.00
2023-01-25T21:54:58.429Z,26.77
2023-01-25T21:58:26.386Z,28.90
2023-01-25T22:02:25.123Z,29.15
2023-01-25T22:06:23.533Z,26.95
2023-01-25T22:10:21.214Z,25.90
2023-01-25T22:14:27.453Z,24.73
2023-01-25T22:18:09.027Z,24.35
2023-01-25T22:25:48.860Z,25.13
2023-01-25T22:33:47.549Z,24.50
2023-01-25T22:37:38.049Z,23.70
2023-01-25T22:41:12.453Z,24.08
2023-01-25T22:44:44.290Z,24.45
2023-01-25T22:48:24.640Z,23.97
2023-01-25T22:56:35.359Z,22.55
2023-01-25T23:00:19.180Z,21.00
2023-01-25T23:04:19.774Z,20.88
2023-01-25T23:08:15.571Z,18.43
2023-01-25T23:12:08.619Z,20.10
2023-01-25T23:16:12.382Z,19.75
2023-01-25T23:20:07.519Z,18.70
2023-01-25T23:23:29.589Z,16.35
2023-01-25T23:26:49.941Z,18.57
2023-01-25T23:30:14.090Z,18.07
2023-01-25T23:33:45.922Z,18.45
2023-01-25T23:37:05.112Z,18.02
2023-01-25T23:40:37.447Z,18.52
2023-01-25T23:43:56.372Z,18.70
2023-01-25T23:47:15.564Z,18.93
2023-01-25T23:50:50.911Z,18.73
2023-01-25T23:54:23.336Z,18.27
2023-01-25T23:57:37.014Z,19.35
